createdAt,value
2018-03-01T00:01:46.849Z,47.83
2018-03-01T00:04:15.987Z,47.73
2018-03-01T00:06:44.279Z,48.07
2018-03-01T00:09:12.566Z,48.45
2018-03-01T00:11:40.821Z,47.95
2018-03-01T00:14:09.112Z,48.66
2018-03-01T00:16:37.376Z,47.87
2018-03-01T00:19:05.643Z,48.07
2018-03-01T00:21:33.966Z,47.92
2018-03-01T00:24:03.006Z,48.15
2018-03-01T00:26:31.444Z,48.08
2018-03-01T00:29:00.534Z,48.25
2018-03-01T00:31:29.597Z,47.90
2018-03-01T00:33:57.957Z,48.36
2018-03-01T00:36:27.085Z,48.43
2018-03-01T00:38:55.348Z,48.67
2018-03-01T00:41:23.638Z,48.49
2018-03-01T00:43:52.679Z,48.78
2018-03-01T00:46:21.032Z,48.55
2018-03-01T00:48:49.336Z,49.31
2018-03-01T00:51:17.706Z,48.88
2018-03-01T00:53:45.989Z,48.71
2018-03-01T00:56:14.269Z,48.78
2018-03-01T00:58:42.574Z,48.90
2018-03-01T01:01:10.854Z,48.42
2018-03-01T01:03:39.914Z,49.00
2018-03-01T01:06:08.261Z,48.98
2018-03-01T01:08:36.555Z,48.99
2018-03-01T01:11:04.887Z,48.65
2018-03-01T01:13:33.934Z,48.55
2018-03-01T01:16:02.216Z,48.67
2018-03-01T01:18:31.966Z,48.89
2018-03-01T01:21:01.021Z,48.54
2018-03-01T01:23:29.312Z,48.55
2018-03-01T01:25:57.660Z,48.64
2018-03-01T01:28:26.043Z,48.65
2018-03-01T01:30:54.325Z,48.75
2018-03-01T01:33:22.646Z,48.97
2018-03-01T01:35:51.778Z,48.63
2018-03-01T01:38:20.082Z,48.22
2018-03-01T01:40:48.421Z,47.94
2018-03-01T01:43:17.448Z,48.43
2018-03-01T01:45:45.715Z,48.42
2018-03-01T01:48:14.002Z,48.19
2018-03-01T01:51:00.094Z,48.17
2018-03-01T01:53:28.369Z,48.03
2018-03-01T01:55:56.639Z,48.18
2018-03-01T01:58:24.891Z,48.50
2018-03-01T02:00:53.229Z,48.10
2018-03-01T02:03:22.262Z,48.04
2018-03-01T02:05:50.530Z,47.74
2018-03-01T02:08:18.830Z,48.19
2018-03-01T02:10:47.103Z,47.83
2018-03-01T02:13:15.383Z,48.76
2018-03-01T02:15:44.377Z,47.83
2018-03-01T02:18:12.670Z,47.72
2018-03-01T02:20:41.734Z,48.14
2018-03-01T02:23:10.046Z,47.87
2018-03-01T02:25:38.327Z,48.33
2018-03-01T02:28:07.352Z,47.75
2018-03-01T02:30:35.644Z,48.35
2018-03-01T02:33:29.475Z,48.10
2018-03-01T02:35:58.551Z,48.36
2018-03-01T02:38:26.815Z,47.88
2018-03-01T02:40:55.129Z,48.68
2018-03-01T02:43:23.508Z,48.13
2018-03-01T02:45:51.783Z,47.88
2018-03-01T02:48:20.811Z,48.46
2018-03-01T02:50:49.099Z,48.80
2018-03-01T02:53:17.371Z,48.25
2018-03-01T02:55:45.620Z,48.67
2018-03-01T02:58:14.722Z,48.34
2018-03-01T03:00:43.739Z,48.32
2018-03-01T03:03:12.113Z,48.37
2018-03-01T03:05:40.399Z,48.26
2018-03-01T03:08:08.681Z,48.64
2018-03-01T03:10:37.736Z,48.08
2018-03-01T03:13:05.997Z,48.19
2018-03-01T03:15:35.360Z,48.63
2018-03-01T03:18:04.501Z,48.34
2018-03-01T03:20:32.808Z,48.26
2018-03-01T03:23:01.055Z,48.25
2018-03-01T03:25:29.357Z,48.29
2018-03-01T03:27:57.671Z,48.00
2018-03-01T03:30:26.698Z,48.44
2018-03-01T03:32:54.982Z,47.98
2018-03-01T03:35:23.237Z,48.12
2018-03-01T03:37:51.513Z,48.29
2018-03-01T03:40:20.001Z,48.38
2018-03-01T03:42:48.267Z,47.63
2018-03-01T03:45:16.528Z,48.20
2018-03-01T03:47:44.895Z,48.02
2018-03-01T03:50:13.181Z,47.61
2018-03-01T03:52:41.710Z,47.79
2018-03-01T03:55:10.134Z,48.19
2018-03-01T03:57:38.434Z,47.81
2018-03-01T04:00:06.842Z,48.14
2018-03-01T04:02:35.104Z,48.09
2018-03-01T04:05:03.415Z,48.20
2018-03-01T04:07:32.458Z,48.16
2018-03-01T04:10:00.728Z,48.27
2018-03-01T04:12:29.006Z,47.82
2018-03-01T04:14:57.280Z,48.03
2018-03-01T04:17:25.618Z,47.75
2018-03-01T04:19:54.667Z,48.37
2018-03-01T04:22:22.928Z,48.08
2018-03-01T04:24:51.205Z,47.80
2018-03-01T04:27:19.476Z,47.86
2018-03-01T04:29:47.831Z,47.94
2018-03-01T04:32:16.125Z,48.07
2018-03-01T04:34:44.413Z,47.98
2018-03-01T04:37:12.678Z,48.15
2018-03-01T04:39:40.975Z,48.15
2018-03-01T04:42:09.252Z,48.44
2018-03-01T04:44:37.536Z,48.03
2018-03-01T04:47:05.797Z,47.94
2018-03-01T04:49:34.354Z,48.24
2018-03-01T04:52:02.647Z,48.75
2018-03-01T04:54:30.923Z,49.05
2018-03-01T04:56:59.287Z,48.55
2018-03-01T04:59:27.556Z,48.48
2018-03-01T05:01:55.875Z,48.55
2018-03-01T05:04:24.152Z,48.23
2018-03-01T05:06:52.455Z,48.55
2018-03-01T05:09:20.730Z,48.89
2018-03-01T05:11:49.011Z,48.93
2018-03-01T05:14:17.292Z,48.83
2018-03-01T05:16:45.807Z,48.26
2018-03-01T05:19:14.271Z,48.42
2018-03-01T05:21:42.587Z,49.18
2018-03-01T05:24:10.896Z,49.48
2018-03-01T05:26:39.290Z,49.07
2018-03-01T05:29:07.864Z,48.89
2018-03-01T05:31:36.162Z,48.90
2018-03-01T05:34:04.789Z,49.38
2018-03-01T05:36:33.323Z,49.47
2018-03-01T05:39:01.862Z,49.15
2018-03-01T05:41:30.946Z,48.95
2018-03-01T05:43:59.984Z,49.10
2018-03-01T05:46:28.287Z,49.33
2018-03-01T05:48:56.555Z,48.97
2018-03-01T05:51:24.823Z,49.14
2018-03-01T05:53:53.086Z,48.73
2018-03-01T05:56:21.383Z,49.14
2018-03-01T05:58:50.142Z,49.74
2018-03-01T06:01:18.439Z,49.31
2018-03-01T06:03:46.704Z,49.70
2018-03-01T06:06:14.980Z,48.82
2018-03-01T06:08:43.327Z,49.09
2018-03-01T06:11:11.604Z,50.49
2018-03-01T06:13:40.656Z,49.55
2018-03-01T06:16:08.929Z,49.65
2018-03-01T06:18:37.230Z,49.04
2018-03-01T06:21:06.260Z,49.24
2018-03-01T06:23:34.530Z,49.24
2018-03-01T06:26:02.817Z,50.63
2018-03-01T06:28:31.122Z,48.94
2018-03-01T06:30:59.639Z,49.09
2018-03-01T06:33:27.946Z,49.11
2018-03-01T06:35:56.378Z,49.04
2018-03-01T06:38:25.409Z,49.18
2018-03-01T06:40:53.872Z,48.92
2018-03-01T06:43:22.979Z,49.28
2018-03-01T06:45:51.308Z,48.87
2018-03-01T06:48:19.576Z,48.50
2018-03-01T06:50:47.992Z,48.51
2018-03-01T06:53:16.308Z,48.79
2018-03-01T06:55:44.772Z,48.85
2018-03-01T06:58:13.886Z,49.12
2018-03-01T07:00:42.168Z,48.71
2018-03-01T07:03:10.465Z,48.41
2018-03-01T07:05:38.738Z,48.57
2018-03-01T07:08:07.028Z,47.83
2018-03-01T07:10:36.118Z,47.93
2018-03-01T07:13:04.408Z,47.54
2018-03-01T07:15:33.451Z,47.85
2018-03-01T07:18:01.708Z,47.42
2018-03-01T07:20:30.014Z,47.79
2018-03-01T07:22:58.396Z,47.69
2018-03-01T07:25:26.678Z,47.05
2018-03-01T07:27:54.954Z,47.41
2018-03-01T07:30:23.380Z,47.47
2018-03-01T07:32:51.777Z,47.04
2018-03-01T07:35:20.135Z,47.29
2018-03-01T07:37:48.438Z,46.75
2018-03-01T07:40:16.911Z,46.78
2018-03-01T07:42:45.183Z,46.34
2018-03-01T07:45:13.496Z,46.10
2018-03-01T07:47:41.900Z,46.42
2018-03-01T07:50:10.154Z,45.75
2018-03-01T07:52:38.457Z,46.10
2018-03-01T07:55:06.731Z,45.84
2018-03-01T07:57:35.138Z,46.27
2018-03-01T08:00:03.495Z,46.31
2018-03-01T08:02:32.286Z,46.26
2018-03-01T08:05:00.809Z,45.72
2018-03-01T08:07:29.097Z,45.84
2018-03-01T08:09:57.411Z,45.23
2018-03-01T08:12:26.473Z,44.95
2018-03-01T08:14:56.338Z,45.75
2018-03-01T08:17:24.606Z,45.43
2018-03-01T08:19:52.883Z,45.23
2018-03-01T08:22:21.212Z,45.63
2018-03-01T08:24:49.503Z,45.76
2018-03-01T08:27:17.793Z,45.63
2018-03-01T08:29:46.239Z,45.51
2018-03-01T08:32:19.814Z,43.99
2018-03-01T08:34:48.412Z,44.75
2018-03-01T08:37:16.853Z,44.64
2018-03-01T08:39:45.116Z,44.35
2018-03-01T08:42:13.391Z,44.55
2018-03-01T08:44:41.846Z,44.61
2018-03-01T08:47:10.143Z,44.09
2018-03-01T08:49:38.552Z,43.06
2018-03-01T08:52:06.810Z,43.89
2018-03-01T08:54:35.168Z,42.93
2018-03-01T08:57:03.458Z,43.33
2018-03-01T08:59:31.762Z,42.00
2018-03-01T09:02:00.028Z,42.50
2018-03-01T09:04:28.288Z,42.46
2018-03-01T09:06:56.588Z,41.96
2018-03-01T09:09:26.391Z,41.33
2018-03-01T09:11:54.911Z,41.03
2018-03-01T09:14:23.979Z,39.33
2018-03-01T09:16:52.274Z,38.87
2018-03-01T09:19:21.350Z,38.47
2018-03-01T09:21:49.586Z,38.00
2018-03-01T09:24:17.919Z,38.51
2018-03-01T09:26:46.988Z,38.17
2018-03-01T09:29:15.259Z,38.67
2018-03-01T09:31:43.523Z,37.72
2018-03-01T09:34:11.880Z,36.72
2018-03-01T09:36:40.135Z,36.79
2018-03-01T09:39:08.450Z,35.59
2018-03-01T09:41:36.724Z,34.69
2018-03-01T09:44:05.050Z,34.79
2018-03-01T09:46:33.331Z,34.14
2018-03-01T09:49:01.705Z,32.15
2018-03-01T09:51:30.036Z,32.16
2018-03-01T09:53:58.378Z,31.99
2018-03-01T09:56:26.646Z,31.72
2018-03-01T09:58:54.970Z,31.87
2018-03-01T10:01:23.499Z,33.38
2018-03-01T10:03:51.742Z,34.88
2018-03-01T10:06:19.963Z,36.58
2018-03-01T10:08:48.236Z,36.91
2018-03-01T10:11:16.487Z,36.90
2018-03-01T10:13:44.777Z,37.82
2018-03-01T10:16:13.169Z,37.49
2018-03-01T10:18:41.526Z,38.38
2018-03-01T10:21:09.776Z,38.07
2018-03-01T10:23:38.881Z,37.65
2018-03-01T10:26:07.161Z,38.68
2018-03-01T10:28:39.467Z,38.07
2018-03-01T10:31:07.816Z,37.26
2018-03-01T10:33:42.512Z,36.68
2018-03-01T10:36:10.786Z,35.89
2018-03-01T10:38:39.854Z,36.71
2018-03-01T10:41:08.301Z,36.83
2018-03-01T10:43:36.559Z,36.58
2018-03-01T10:46:04.877Z,37.31
2018-03-01T10:48:33.135Z,37.45
2018-03-01T10:51:01.404Z,37.40
2018-03-01T10:53:29.679Z,36.91
2018-03-01T10:55:57.994Z,36.63
2018-03-01T10:58:27.857Z,36.74
2018-03-01T11:01:00.144Z,36.30
2018-03-01T11:03:28.422Z,36.11
2018-03-01T11:05:56.679Z,36.86
2018-03-01T11:08:24.958Z,36.95
2018-03-01T11:10:53.217Z,36.25
2018-03-01T11:13:21.501Z,35.02
2018-03-01T11:15:50.034Z,34.95
2018-03-01T11:18:18.323Z,35.43
2018-03-01T11:20:47.483Z,35.72
2018-03-01T11:23:15.886Z,35.78
2018-03-01T11:25:44.175Z,35.44
2018-03-01T11:28:12.575Z,35.09
2018-03-01T11:30:40.883Z,35.15
2018-03-01T11:33:09.138Z,34.88
2018-03-01T11:35:37.426Z,35.47
2018-03-01T11:38:05.689Z,35.95
2018-03-01T11:40:33.987Z,35.40
2018-03-01T11:43:03.130Z,35.73
2018-03-01T11:45:31.434Z,35.81
2018-03-01T11:47:59.834Z,35.27
2018-03-01T11:50:28.106Z,35.26
2018-03-01T11:52:56.473Z,36.04
2018-03-01T11:55:24.895Z,35.53
2018-03-01T11:57:53.170Z,35.33
2018-03-01T12:00:21.437Z,34.40
2018-03-01T12:02:49.794Z,35.29
2018-03-01T12:05:18.092Z,35.02
2018-03-01T12:07:46.387Z,34.27
2018-03-01T12:10:15.515Z,34.29
2018-03-01T12:12:43.793Z,33.44
2018-03-01T12:15:12.279Z,32.81
2018-03-01T12:17:40.649Z,33.07
2018-03-01T12:20:08.932Z,33.74
2018-03-01T12:22:37.179Z,33.26
2018-03-01T12:25:06.407Z,32.75
2018-03-01T12:27:34.649Z,31.68
2018-03-01T12:30:03.132Z,32.02
2018-03-01T12:32:31.404Z,30.81
2018-03-01T12:34:59.676Z,31.56
2018-03-01T12:37:28.045Z,31.68
2018-03-01T12:39:57.582Z,31.74
2018-03-01T12:42:25.988Z,31.28
2018-03-01T12:44:54.407Z,31.67
2018-03-01T12:47:22.709Z,31.11
2018-03-01T12:49:50.988Z,31.06
2018-03-01T12:52:19.265Z,31.08
2018-03-01T12:54:47.539Z,30.55
2018-03-01T12:57:15.829Z,30.56
2018-03-01T12:59:44.111Z,30.39
2018-03-01T13:02:12.439Z,29.84
2018-03-01T13:04:51.570Z,29.73
2018-03-01T13:07:19.846Z,29.51
2018-03-01T13:09:48.150Z,29.62
2018-03-01T13:12:16.438Z,29.40
2018-03-01T13:14:44.695Z,30.20
2018-03-01T13:17:12.990Z,29.72
2018-03-01T13:19:41.295Z,29.82
2018-03-01T13:22:09.555Z,29.47
2018-03-01T13:24:37.804Z,29.42
2018-03-01T13:27:06.183Z,29.48
2018-03-01T13:29:34.447Z,29.73
2018-03-01T13:32:04.085Z,29.76
2018-03-01T13:34:51.424Z,29.54
2018-03-01T13:37:19.709Z,29.71
2018-03-01T13:39:47.987Z,29.03
2018-03-01T13:42:17.467Z,29.72
2018-03-01T13:44:45.717Z,28.17
2018-03-01T13:47:18.179Z,27.93
2018-03-01T13:49:47.566Z,29.32
2018-03-01T13:52:16.177Z,29.42
2018-03-01T13:54:44.547Z,28.94
2018-03-01T13:57:12.840Z,29.02
2018-03-01T13:59:41.156Z,28.37
2018-03-01T14:02:09.454Z,28.61
2018-03-01T14:04:37.804Z,27.61
2018-03-01T14:10:15.081Z,27.54
2018-03-01T14:12:43.627Z,27.75
2018-03-01T14:15:14.048Z,28.04
2018-03-01T14:17:47.900Z,28.10
2018-03-01T14:20:26.111Z,29.33
2018-03-01T14:23:12.007Z,29.47
2018-03-01T14:25:41.073Z,29.95
2018-03-01T14:28:13.827Z,29.49
2018-03-01T14:30:42.364Z,30.01
2018-03-01T14:33:12.211Z,30.18
2018-03-01T14:35:40.812Z,30.17
2018-03-01T14:38:09.146Z,29.66
2018-03-01T14:40:38.275Z,30.05
2018-03-01T14:43:06.835Z,30.07
2018-03-01T14:45:36.476Z,30.19
2018-03-01T14:48:05.456Z,29.96
2018-03-01T14:50:34.110Z,30.40
2018-03-01T14:53:02.978Z,30.53
2018-03-01T14:55:31.615Z,30.95
2018-03-01T14:58:00.344Z,30.57
2018-03-01T15:00:30.882Z,30.58
2018-03-01T15:03:00.166Z,30.70
2018-03-01T15:05:29.536Z,30.56
2018-03-01T15:07:58.742Z,31.04
2018-03-01T15:10:27.102Z,30.63
2018-03-01T15:12:56.194Z,30.51
2018-03-01T15:15:24.447Z,30.94
2018-03-01T15:17:53.775Z,30.38
2018-03-01T15:20:22.212Z,30.87
2018-03-01T15:22:50.647Z,30.85
2018-03-01T15:25:20.125Z,31.20
2018-03-01T15:27:48.428Z,31.29
2018-03-01T15:30:17.565Z,31.07
2018-03-01T15:32:45.886Z,31.14
2018-03-01T15:35:14.914Z,30.73
2018-03-01T15:37:43.411Z,31.00
2018-03-01T15:40:12.506Z,31.20
2018-03-01T15:42:40.934Z,31.32
2018-03-01T15:45:09.348Z,31.30
2018-03-01T15:47:37.628Z,31.23
2018-03-01T15:50:06.680Z,32.04
2018-03-01T15:52:35.005Z,31.87
2018-03-01T15:55:04.252Z,31.32
2018-03-01T15:57:34.108Z,31.89
2018-03-01T16:00:02.798Z,31.54
2018-03-01T16:02:33.076Z,32.12
2018-03-01T16:05:03.377Z,31.58
2018-03-01T16:07:32.673Z,31.15
2018-03-01T16:10:01.322Z,31.49
2018-03-01T16:12:31.297Z,31.35
2018-03-01T16:15:00.438Z,33.30
2018-03-01T16:17:29.728Z,31.51
2018-03-01T16:19:58.182Z,31.56
2018-03-01T16:22:27.297Z,31.88
2018-03-01T16:24:55.747Z,32.13
2018-03-01T16:27:24.322Z,32.92
2018-03-01T16:29:52.758Z,32.16
2018-03-01T16:32:21.157Z,32.07
2018-03-01T16:34:51.636Z,32.30
2018-03-01T16:37:20.090Z,33.89
2018-03-01T16:39:50.087Z,32.61
2018-03-01T16:42:18.412Z,32.41
2018-03-01T16:44:47.504Z,32.78
2018-03-01T16:47:16.540Z,33.23
2018-03-01T16:49:45.450Z,33.20
2018-03-01T16:52:14.060Z,33.33
2018-03-01T16:54:43.133Z,32.46
2018-03-01T16:57:11.504Z,32.58
2018-03-01T16:59:39.832Z,32.54
2018-03-01T17:02:08.091Z,32.57
2018-03-01T17:04:37.291Z,32.93
2018-03-01T17:07:06.723Z,33.17
2018-03-01T17:09:35.722Z,33.43
2018-03-01T17:12:04.749Z,32.74
2018-03-01T17:14:33.033Z,33.44
2018-03-01T17:17:01.315Z,33.34
2018-03-01T17:19:29.855Z,33.43
2018-03-01T17:21:58.108Z,33.85
2018-03-01T17:24:26.597Z,33.81
2018-03-01T17:26:54.995Z,33.25
2018-03-01T17:29:23.400Z,33.12
2018-03-01T17:31:51.887Z,33.31
2018-03-01T17:34:21.732Z,34.00
2018-03-01T17:36:50.029Z,33.90
2018-03-01T17:39:18.317Z,33.50
2018-03-01T17:41:47.337Z,33.63
2018-03-01T17:44:16.385Z,33.75
2018-03-01T17:46:44.872Z,33.61
2018-03-01T17:49:13.710Z,33.41
2018-03-01T17:51:42.770Z,33.79
2018-03-01T17:54:11.184Z,33.63
2018-03-01T17:56:39.487Z,34.04
2018-03-01T17:59:07.771Z,33.65
2018-03-01T18:01:36.716Z,33.97
2018-03-01T18:04:06.612Z,33.90
2018-03-01T18:06:34.880Z,33.82
2018-03-01T18:09:03.159Z,34.44
2018-03-01T18:11:31.925Z,34.55
2018-03-01T18:14:01.875Z,34.34
2018-03-01T18:16:30.166Z,34.69
2018-03-01T18:18:59.406Z,34.71
2018-03-01T18:21:27.738Z,34.54
2018-03-01T18:23:56.835Z,35.11
2018-03-01T18:26:25.984Z,34.58
2018-03-01T18:28:54.567Z,34.53
2018-03-01T18:31:23.718Z,35.08
2018-03-01T18:33:52.000Z,34.67
2018-03-01T18:36:20.304Z,35.09
2018-03-01T18:38:48.641Z,34.77
2018-03-01T18:41:18.088Z,35.07
2018-03-01T18:43:46.492Z,34.57
2018-03-01T18:46:15.362Z,34.72
2018-03-01T18:48:44.250Z,35.36
2018-03-01T18:51:13.846Z,35.49
2018-03-01T18:53:43.225Z,34.74
2018-03-01T18:56:12.178Z,34.71
2018-03-01T18:58:41.578Z,35.63
2018-03-01T19:01:10.338Z,35.70
2018-03-01T19:03:38.944Z,36.21
2018-03-01T19:06:08.660Z,35.55
2018-03-01T19:08:37.480Z,35.57
2018-03-01T19:11:06.162Z,36.18
2018-03-01T19:13:34.842Z,36.33
2018-03-01T19:16:03.599Z,36.50
2018-03-01T19:18:33.226Z,36.70
2018-03-01T19:21:02.481Z,36.57
2018-03-01T19:23:31.395Z,36.86
2018-03-01T19:26:00.003Z,36.49
2018-03-01T19:28:29.512Z,36.66
2018-03-01T19:31:01.876Z,36.72
2018-03-01T19:33:32.818Z,36.35
2018-03-01T19:36:03.201Z,36.96
2018-03-01T19:38:32.110Z,36.90
2018-03-01T19:41:01.377Z,37.25
2018-03-01T19:43:29.760Z,37.01
2018-03-01T19:45:58.264Z,37.11
2018-03-01T19:48:27.464Z,36.76
2018-03-01T19:50:56.809Z,37.47
2018-03-01T19:53:27.156Z,36.53
2018-03-01T19:55:57.019Z,36.50
2018-03-01T19:58:25.455Z,36.75
2018-03-01T20:00:55.548Z,36.97
2018-03-01T20:03:24.888Z,36.74
2018-03-01T20:05:54.147Z,36.65
2018-03-01T20:08:22.503Z,36.76
2018-03-01T20:10:52.187Z,36.99
2018-03-01T20:13:20.553Z,37.38
2018-03-01T20:15:49.166Z,37.19
2018-03-01T20:18:18.106Z,36.60
2018-03-01T20:20:46.540Z,36.83
2018-03-01T20:23:15.588Z,37.67
2018-03-01T20:25:43.983Z,37.72
2018-03-01T20:28:14.909Z,37.28
2018-03-01T20:30:43.296Z,37.19
2018-03-01T20:33:11.931Z,37.91
2018-03-01T20:35:40.788Z,37.53
2018-03-01T20:38:10.519Z,38.28
2018-03-01T20:40:39.324Z,37.46
2018-03-01T20:43:08.206Z,37.80
2018-03-01T20:45:37.291Z,37.50
2018-03-01T20:48:06.402Z,37.74
2018-03-01T20:50:35.245Z,37.80
2018-03-01T20:53:04.484Z,37.75
2018-03-01T20:55:34.042Z,37.53
2018-03-01T20:58:02.808Z,37.51
2018-03-01T21:00:31.154Z,38.36
2018-03-01T21:02:59.691Z,37.81
2018-03-01T21:05:29.026Z,37.84
2018-03-01T21:07:58.947Z,37.86
2018-03-01T21:10:27.486Z,37.99
2018-03-01T21:12:56.220Z,38.01
2018-03-01T21:15:25.681Z,38.27
2018-03-01T21:17:54.082Z,38.31
2018-03-01T21:20:22.358Z,38.44
2018-03-01T21:22:50.733Z,38.39
2018-03-01T21:25:19.028Z,38.01
2018-03-01T21:27:47.581Z,38.36
2018-03-01T21:30:15.927Z,38.32
2018-03-01T21:32:45.285Z,38.89
2018-03-01T21:35:13.596Z,38.82
2018-03-01T21:37:42.445Z,39.10
2018-03-01T21:40:10.769Z,39.27
2018-03-01T21:42:39.930Z,39.59
2018-03-01T21:45:08.205Z,39.03
2018-03-01T21:47:36.794Z,39.75
2018-03-01T21:50:05.173Z,38.77
2018-03-01T21:52:33.526Z,39.08
2018-03-01T21:55:02.098Z,39.49
2018-03-01T21:57:30.375Z,39.66
2018-03-01T21:59:58.657Z,39.82
2018-03-01T22:02:27.006Z,39.73
2018-03-01T22:04:55.389Z,39.85
2018-03-01T22:07:23.690Z,40.18
2018-03-01T22:09:52.019Z,39.78
2018-03-01T22:12:22.248Z,40.14
2018-03-01T22:14:50.505Z,40.11
2018-03-01T22:17:19.675Z,39.98
2018-03-01T22:19:47.974Z,39.84
2018-03-01T22:22:17.026Z,40.49
2018-03-01T22:24:46.205Z,39.71
2018-03-01T22:27:15.468Z,40.32
2018-03-01T22:29:46.380Z,40.02
2018-03-01T22:32:15.473Z,40.34
2018-03-01T22:34:44.542Z,40.32
2018-03-01T22:37:12.907Z,40.11
2018-03-01T22:39:41.248Z,40.73
2018-03-01T22:42:10.310Z,40.84
2018-03-01T22:44:38.625Z,40.58
2018-03-01T22:47:06.956Z,40.63
2018-03-01T22:49:35.271Z,40.77
2018-03-01T22:52:04.314Z,41.07
2018-03-01T22:54:32.709Z,41.09
2018-03-01T22:57:01.182Z,41.09
2018-03-01T22:59:29.451Z,41.28
2018-03-01T23:01:57.755Z,41.32
2018-03-01T23:04:26.051Z,41.57
2018-03-01T23:06:55.196Z,42.53
2018-03-01T23:09:24.403Z,41.71
2018-03-01T23:11:52.787Z,41.16
2018-03-01T23:14:21.103Z,41.45
2018-03-01T23:16:49.378Z,42.56
2018-03-01T23:19:17.705Z,41.62
2018-03-01T23:21:46.055Z,42.08
2018-03-01T23:24:14.465Z,41.86
2018-03-01T23:26:42.804Z,41.88
2018-03-01T23:29:11.060Z,41.68
2018-03-01T23:31:39.338Z,41.51
2018-03-01T23:34:07.765Z,41.81
2018-03-01T23:36:36.044Z,41.91
2018-03-01T23:39:04.319Z,41.89
2018-03-01T23:41:32.926Z,42.20
2018-03-01T23:44:01.198Z,42.35
2018-03-01T23:46:30.239Z,42.19
2018-03-01T23:48:58.552Z,42.37
2018-03-01T23:51:27.225Z,42.41
2018-03-01T23:53:55.499Z,42.64
2018-03-01T23:56:23.764Z,42.72
2018-03-01T23:58:52.046Z,42.57
